Terminal Aerodrome Forecast
Issued by NWS

Home | Current Version | Previous Version | Text Only | Print | Product List | Glossary On
Versions: 1 2 3 4 5 6 7 8 9 10 11 12 13
000
FTUS44 KLZK 261730
TAFADF
TAF
KADF 261730Z 2618/2718 25005KT P6SM SKC
     FM270100 00000KT P6SM FEW250
      TEMPO 2710/2713 3SM BR
     FM271500 25007KT P6SM SCT250=

USA.gov is the U.S. government's official web portal to all federal, state and local government web resources and services.